createdAt,value
2023-04-01T00:00:50.925Z,99.87
2023-04-01T00:01:50.884Z,99.77
2023-04-01T00:02:50.995Z,99.66
2023-04-01T00:03:51.141Z,99.56
2023-04-01T00:04:50.927Z,99.15
2023-04-01T00:05:50.848Z,98.95
2023-04-01T00:06:50.880Z,98.85
2023-04-01T00:07:50.776Z,98.85
2023-04-01T00:08:50.827Z,98.80
2023-04-01T00:09:50.849Z,98.49
2023-04-01T00:10:50.826Z,98.33
2023-04-01T00:11:50.797Z,98.54
2023-04-01T00:12:50.827Z,98.60
2023-04-01T00:13:50.703Z,98.29
2023-04-01T00:14:50.830Z,98.08
2023-04-01T00:15:50.864Z,98.19
2023-04-01T00:16:50.844Z,98.08
2023-04-01T00:17:50.770Z,98.03
2023-04-01T00:18:50.744Z,97.82
2023-04-01T00:19:50.780Z,97.92
2023-04-01T00:20:50.685Z,98.03
2023-04-01T00:21:50.683Z,98.03
2023-04-01T00:22:50.668Z,98.24
2023-04-01T00:23:50.708Z,98.24
2023-04-01T00:24:50.625Z,98.33
2023-04-01T00:25:50.643Z,98.13
2023-04-01T00:26:50.728Z,98.24
2023-04-01T00:27:50.741Z,98.33
2023-04-01T00:28:50.592Z,98.44
2023-04-01T00:29:50.641Z,98.44
2023-04-01T00:30:50.592Z,98.44
2023-04-01T00:31:50.757Z,98.29
2023-04-01T00:32:50.654Z,98.19
2023-04-01T00:33:50.655Z,98.13
2023-04-01T00:34:50.525Z,98.24
2023-04-01T00:35:50.604Z,98.13
2023-04-01T00:36:50.687Z,98.13
2023-04-01T00:37:50.539Z,98.13
2023-04-01T00:38:50.573Z,97.92
2023-04-01T00:39:50.624Z,98.03
2023-04-01T00:40:50.471Z,98.24
2023-04-01T00:41:50.542Z,98.44
2023-04-01T00:42:50.429Z,98.74
2023-04-01T00:43:50.486Z,98.74
2023-04-01T00:44:51.222Z,99.05
2023-04-01T00:45:50.468Z,99.26
2023-04-01T00:46:50.464Z,99.26
2023-04-01T00:47:50.563Z,99.05
2023-04-01T00:48:50.533Z,98.95
2023-04-01T00:49:50.421Z,98.95
2023-04-01T00:50:50.553Z,98.85
2023-04-01T00:51:50.369Z,98.95
2023-04-01T00:52:50.397Z,98.95
2023-04-01T00:53:50.393Z,99.05
2023-04-01T00:54:50.434Z,99.05
2023-04-01T00:55:50.362Z,99.26
2023-04-01T00:56:50.394Z,99.36
2023-04-01T00:57:50.328Z,99.46
2023-04-01T00:58:50.295Z,99.36
2023-04-01T00:59:50.340Z,99.36
2023-04-01T01:00:50.407Z,99.36
2023-04-01T01:01:50.474Z,99.26
2023-04-01T01:02:50.313Z,99.15
2023-04-01T01:03:50.258Z,99.05
2023-04-01T01:04:50.207Z,99.05
2023-04-01T01:05:50.568Z,99.05
2023-04-01T01:06:50.429Z,98.90
2023-04-01T01:07:50.249Z,98.70
2023-04-01T01:08:50.226Z,98.60
2023-04-01T01:09:50.224Z,98.49
2023-04-01T01:10:50.252Z,98.49
2023-04-01T01:11:50.360Z,98.49
2023-04-01T01:12:50.094Z,98.60
2023-04-01T01:13:50.180Z,98.49
2023-04-01T01:14:50.141Z,98.39
2023-04-01T01:15:50.069Z,98.08
2023-04-01T01:16:50.319Z,98.29
2023-04-01T01:17:50.170Z,98.39
2023-04-01T01:18:50.122Z,98.19
2023-04-01T01:19:50.097Z,98.29
2023-04-01T01:20:50.086Z,98.29
2023-04-01T01:21:50.123Z,98.39
2023-04-01T01:22:50.130Z,98.29
2023-04-01T01:23:50.050Z,98.39
2023-04-01T01:24:49.990Z,98.29
2023-04-01T01:25:50.025Z,98.44
2023-04-01T01:26:50.044Z,98.54
2023-04-01T01:27:50.019Z,98.65
2023-04-01T01:28:49.993Z,99.05
2023-04-01T01:29:49.966Z,99.26
2023-04-01T01:30:50.021Z,99.26
2023-04-01T01:31:49.972Z,99.36
2023-04-01T01:32:50.118Z,99.46
2023-04-01T01:33:50.003Z,99.36
2023-04-01T01:34:49.937Z,99.26
2023-04-01T01:35:49.959Z,99.21
2023-04-01T01:36:49.942Z,99.31
2023-04-01T01:37:50.142Z,99.31
2023-04-01T01:38:49.891Z,99.11
2023-04-01T01:39:49.880Z,99.11
2023-04-01T01:40:49.844Z,99.05
2023-04-01T01:41:50.052Z,99.15
2023-04-01T01:42:49.918Z,99.36
2023-04-01T01:43:49.859Z,99.46
2023-04-01T01:44:49.908Z,99.66
2023-04-01T01:45:49.868Z,99.66
2023-04-01T01:46:49.802Z,99.66
2023-04-01T01:47:49.800Z,99.66
2023-04-01T01:48:49.803Z,99.98
2023-04-01T01:49:49.804Z,99.99
2023-04-01T01:50:49.734Z,99.99
2023-04-01T01:51:49.927Z,99.99
2023-04-01T01:52:49.748Z,99.99
2023-04-01T01:53:49.737Z,99.99
2023-04-01T01:54:49.776Z,99.99
2023-04-01T01:55:49.768Z,99.99
2023-04-01T01:56:49.770Z,99.99
2023-04-01T01:57:49.689Z,99.99
2023-04-01T01:58:49.740Z,99.99
2023-04-01T01:59:49.620Z,99.99
2023-04-01T02:00:49.695Z,99.99
2023-04-01T02:01:50.388Z,99.99
2023-04-01T02:02:49.802Z,99.99
2023-04-01T02:03:49.648Z,99.99
2023-04-01T02:04:49.663Z,99.99
2023-04-01T02:05:49.633Z,99.99
2023-04-01T02:06:49.699Z,99.99
2023-04-01T02:07:49.667Z,99.99
2023-04-01T02:08:49.596Z,99.99
2023-04-01T02:09:49.590Z,99.99
2023-04-01T02:10:49.591Z,99.99
2023-04-01T02:11:49.774Z,99.99
2023-04-01T02:12:49.550Z,99.99
2023-04-01T02:13:49.595Z,99.99
2023-04-01T02:14:49.482Z,99.99
2023-04-01T02:15:49.561Z,99.99
2023-04-01T02:16:50.338Z,99.99
2023-04-01T02:17:49.533Z,99.99
2023-04-01T02:18:49.519Z,99.99
2023-04-01T02:19:49.518Z,99.99
2023-04-01T02:20:49.394Z,99.99
2023-04-01T02:21:49.504Z,99.99
2023-04-01T02:22:49.441Z,99.99
2023-04-01T02:23:49.480Z,99.99
2023-04-01T02:24:49.434Z,99.99
2023-04-01T02:25:49.349Z,99.99
2023-04-01T02:26:49.399Z,99.99
2023-04-01T02:27:49.400Z,99.99
2023-04-01T02:28:49.347Z,99.99
2023-04-01T02:29:49.381Z,99.99
2023-04-01T02:30:49.382Z,99.99
2023-04-01T02:31:49.418Z,99.99
2023-04-01T02:32:49.366Z,99.99
2023-04-01T02:33:49.278Z,99.99
2023-04-01T02:34:49.341Z,99.99
2023-04-01T02:35:49.378Z,99.99
2023-04-01T02:36:49.316Z,99.99
2023-04-01T02:37:49.240Z,99.99
2023-04-01T02:38:49.277Z,99.99
2023-04-01T02:39:49.401Z,99.99
2023-04-01T02:40:49.227Z,99.99
2023-04-01T02:41:49.244Z,99.99
2023-04-01T02:42:49.222Z,99.99
2023-04-01T02:43:49.214Z,99.99
2023-04-01T02:44:49.224Z,99.99
2023-04-01T02:45:49.192Z,99.99
2023-04-01T02:46:49.207Z,99.99
2023-04-01T02:47:49.225Z,99.99
2023-04-01T02:48:49.113Z,99.99
2023-04-01T02:49:49.194Z,99.99
2023-04-01T02:50:49.239Z,99.99
2023-04-01T02:51:49.901Z,99.99
2023-04-01T02:52:49.137Z,99.99
2023-04-01T02:53:49.124Z,99.99
2023-04-01T02:54:49.118Z,99.99
2023-04-01T02:55:49.113Z,99.99
2023-04-01T02:56:49.120Z,99.99
2023-04-01T02:57:49.102Z,99.99
2023-04-01T02:58:49.098Z,99.99
2023-04-01T02:59:49.022Z,99.99
2023-04-01T03:00:49.065Z,99.99
2023-04-01T03:01:49.056Z,99.99
2023-04-01T03:02:49.097Z,99.99
2023-04-01T03:03:49.079Z,99.99
2023-04-01T03:04:49.068Z,99.99
2023-04-01T03:05:49.045Z,99.99
2023-04-01T03:06:49.031Z,99.99
2023-04-01T03:07:49.062Z,99.99
2023-04-01T03:08:48.963Z,99.99
2023-04-01T03:09:49.002Z,99.99
2023-04-01T03:10:48.952Z,99.99
2023-04-01T03:11:48.972Z,99.99
2023-04-01T03:12:48.896Z,99.99
2023-04-01T03:13:48.925Z,99.99
2023-04-01T03:14:48.982Z,99.99
2023-04-01T03:15:49.007Z,99.99
2023-04-01T03:16:48.938Z,99.99
2023-04-01T03:17:48.950Z,99.99
2023-04-01T03:18:48.848Z,99.99
2023-04-01T03:19:48.849Z,99.99
2023-04-01T03:20:48.878Z,99.99
2023-04-01T03:21:48.839Z,99.99
2023-04-01T03:22:48.852Z,99.99
2023-04-01T03:23:48.809Z,99.99
2023-04-01T03:24:48.770Z,99.99
2023-04-01T03:25:48.792Z,99.99
2023-04-01T03:26:48.708Z,99.99
2023-04-01T03:27:48.788Z,99.99
2023-04-01T03:28:48.785Z,99.99
2023-04-01T03:29:48.782Z,99.99
2023-04-01T03:30:48.701Z,99.99
2023-04-01T03:31:48.853Z,99.99
2023-04-01T03:32:48.772Z,99.99
2023-04-01T03:33:48.684Z,99.99
2023-04-01T03:34:48.727Z,99.99
2023-04-01T03:35:48.737Z,99.99
2023-04-01T03:36:48.682Z,99.99
2023-04-01T03:37:48.713Z,99.99
2023-04-01T03:38:48.671Z,99.99
2023-04-01T03:39:48.665Z,99.99
2023-04-01T03:40:48.584Z,99.99
2023-04-01T03:41:48.669Z,99.99
2023-04-01T03:42:48.648Z,99.99
2023-04-01T03:43:48.582Z,99.99
2023-04-01T03:44:48.602Z,99.99
2023-04-01T03:45:48.638Z,99.99
2023-04-01T03:46:48.572Z,99.99
2023-04-01T03:47:48.684Z,99.99
2023-04-01T03:48:49.228Z,99.99
2023-04-01T03:49:48.546Z,99.99
2023-04-01T03:50:48.542Z,99.99
2023-04-01T03:51:48.530Z,99.99
2023-04-01T03:52:49.647Z,99.99
2023-04-01T03:53:48.498Z,99.99
2023-04-01T03:54:48.537Z,99.99
2023-04-01T03:55:48.466Z,99.99
2023-04-01T03:56:48.596Z,99.99
2023-04-01T03:57:48.524Z,99.99
2023-04-01T03:58:48.452Z,99.99
2023-04-01T03:59:48.452Z,99.99
2023-04-01T04:00:48.477Z,99.99
2023-04-01T04:01:48.395Z,99.91
2023-04-01T04:02:48.418Z,99.91
2023-04-01T04:03:48.497Z,99.99
2023-04-01T04:04:48.453Z,99.99
2023-04-01T04:05:48.410Z,99.99
2023-04-01T04:06:48.397Z,99.99
2023-04-01T04:07:48.418Z,99.99
2023-04-01T04:08:48.349Z,99.99
2023-04-01T04:09:48.355Z,99.91
2023-04-01T04:10:48.397Z,99.91
2023-04-01T04:11:48.362Z,99.99
2023-04-01T04:12:48.361Z,99.91
2023-04-01T04:13:48.266Z,99.91
2023-04-01T04:14:48.351Z,99.99
2023-04-01T04:15:48.275Z,99.99
2023-04-01T04:16:48.238Z,99.99
2023-04-01T04:17:48.317Z,99.99
2023-04-01T04:18:48.228Z,99.99
2023-04-01T04:19:48.260Z,99.99
2023-04-01T04:20:48.437Z,99.99
2023-04-01T04:21:48.214Z,99.99
2023-04-01T04:22:48.165Z,99.99
2023-04-01T04:23:48.149Z,99.99
2023-04-01T04:24:48.164Z,99.99
2023-04-01T04:25:48.113Z,99.99
2023-04-01T04:26:48.121Z,99.99
2023-04-01T04:27:48.147Z,99.99
2023-04-01T04:28:48.109Z,99.99
2023-04-01T04:29:48.108Z,99.99
2023-04-01T04:30:48.038Z,99.99
2023-04-01T04:31:48.068Z,99.99
2023-04-01T04:32:48.119Z,99.99
2023-04-01T04:33:48.041Z,99.99
2023-04-01T04:34:48.041Z,99.99
2023-04-01T04:35:48.091Z,99.99
2023-04-01T04:36:47.975Z,99.99
2023-04-01T04:37:47.999Z,99.99
2023-04-01T04:38:48.048Z,99.99
2023-04-01T04:39:47.997Z,99.99
2023-04-01T04:40:48.014Z,99.99
2023-04-01T04:41:47.947Z,99.99
2023-04-01T04:42:48.066Z,99.99
2023-04-01T04:43:47.920Z,99.99
2023-04-01T04:44:47.904Z,99.99
2023-04-01T04:45:47.923Z,99.99
2023-04-01T04:46:47.955Z,99.99
2023-04-01T04:47:47.950Z,99.99
2023-04-01T04:48:48.079Z,99.99
2023-04-01T04:49:47.859Z,99.99
2023-04-01T04:50:47.977Z,99.99
2023-04-01T04:51:47.872Z,99.99
2023-04-01T04:52:47.842Z,99.99
2023-04-01T04:53:47.791Z,99.99
2023-04-01T04:54:47.860Z,99.99
2023-04-01T04:55:47.779Z,99.99
2023-04-01T04:56:47.955Z,99.99
2023-04-01T04:57:47.819Z,99.99
2023-04-01T04:58:47.757Z,99.99
2023-04-01T04:59:47.775Z,99.99
2023-04-01T05:00:47.740Z,99.99
2023-04-01T05:01:47.866Z,99.99
2023-04-01T05:02:47.835Z,99.99
2023-04-01T05:03:47.863Z,99.99
2023-04-01T05:04:47.843Z,99.99
2023-04-01T05:05:47.740Z,99.99
2023-04-01T05:06:47.676Z,99.99
2023-04-01T05:07:47.684Z,99.99
2023-04-01T05:08:47.669Z,99.99
2023-04-01T05:09:47.694Z,99.99
2023-04-01T05:10:47.650Z,99.99
2023-04-01T05:11:47.627Z,99.99
2023-04-01T05:12:47.619Z,99.99
2023-04-01T05:13:47.652Z,99.99
2023-04-01T05:14:47.641Z,99.99
2023-04-01T05:15:47.584Z,99.99
2023-04-01T05:16:47.768Z,99.99
2023-04-01T05:17:47.641Z,99.99
2023-04-01T05:18:47.605Z,99.99
2023-04-01T05:19:47.561Z,99.99
2023-04-01T05:20:47.579Z,99.99
2023-04-01T05:21:47.575Z,99.99
2023-04-01T05:22:47.534Z,99.99
2023-04-01T05:23:47.546Z,99.99
2023-04-01T05:24:47.608Z,99.99
2023-04-01T05:25:47.552Z,99.99
2023-04-01T05:26:47.483Z,99.99
2023-04-01T05:27:47.458Z,99.99
2023-04-01T05:28:47.492Z,99.99
2023-04-01T05:29:47.474Z,99.99
2023-04-01T05:30:47.588Z,99.99
2023-04-01T05:31:47.423Z,99.99
2023-04-01T05:32:47.452Z,99.99
2023-04-01T05:33:47.422Z,99.99
2023-04-01T05:34:47.406Z,99.99
2023-04-01T05:35:47.415Z,99.99
2023-04-01T05:36:47.386Z,99.99
2023-04-01T05:37:47.348Z,99.99
2023-04-01T05:38:47.397Z,99.99
2023-04-01T05:39:47.376Z,99.99
2023-04-01T05:40:47.388Z,99.99
2023-04-01T05:41:47.310Z,99.99
2023-04-01T05:42:47.374Z,99.99
2023-04-01T05:43:47.328Z,99.99
2023-04-01T05:44:47.321Z,99.99
2023-04-01T05:45:47.363Z,99.99
2023-04-01T05:46:47.265Z,99.99
2023-04-01T05:47:47.346Z,99.99
2023-04-01T05:48:47.229Z,99.99
2023-04-01T05:49:47.251Z,99.99
2023-04-01T05:50:47.267Z,99.99
2023-04-01T05:51:47.248Z,99.99
2023-04-01T05:52:47.215Z,99.99
2023-04-01T05:53:47.217Z,99.99
2023-04-01T05:54:47.213Z,99.99
2023-04-01T05:55:47.217Z,99.99
2023-04-01T05:56:48.670Z,99.99
2023-04-01T05:57:47.155Z,99.99
2023-04-01T05:58:47.153Z,99.99
2023-04-01T05:59:47.148Z,99.99
2023-04-01T06:00:47.925Z,99.99
2023-04-01T06:01:47.160Z,99.99
2023-04-01T06:02:47.255Z,99.99
2023-04-01T06:03:47.318Z,99.99
2023-04-01T06:04:47.260Z,99.99
2023-04-01T06:05:47.165Z,99.99
2023-04-01T06:06:47.087Z,99.99
2023-04-01T06:07:47.057Z,99.99
2023-04-01T06:08:47.078Z,99.99
2023-04-01T06:09:47.058Z,99.99
2023-04-01T06:10:47.056Z,99.99
2023-04-01T06:11:47.078Z,99.99
2023-04-01T06:12:47.032Z,99.99
2023-04-01T06:13:47.004Z,99.99
2023-04-01T06:14:46.986Z,99.99
2023-04-01T06:15:47.127Z,99.99
2023-04-01T06:16:46.986Z,99.99
2023-04-01T06:17:47.133Z,99.99
2023-04-01T06:18:46.964Z,99.99
2023-04-01T06:19:46.971Z,99.99
2023-04-01T06:20:46.929Z,99.99
2023-04-01T06:21:46.934Z,99.99
2023-04-01T06:22:46.904Z,99.99
2023-04-01T06:23:46.906Z,99.99
2023-04-01T06:24:46.852Z,99.99
2023-04-01T06:25:46.932Z,99.99
2023-04-01T06:26:46.835Z,99.99
2023-04-01T06:27:46.866Z,99.99
2023-04-01T06:28:46.851Z,99.99
2023-04-01T06:29:46.831Z,99.99
2023-04-01T06:30:46.861Z,99.99
2023-04-01T06:31:46.872Z,99.99
2023-04-01T06:32:46.891Z,99.99
2023-04-01T06:33:46.808Z,99.99
2023-04-01T06:34:46.814Z,99.99
2023-04-01T06:35:46.980Z,99.99
2023-04-01T06:36:46.844Z,99.99
2023-04-01T06:37:46.793Z,99.99
2023-04-01T06:38:46.780Z,99.99
2023-04-01T06:39:46.704Z,99.99
2023-04-01T06:40:46.731Z,99.99
2023-04-01T06:41:46.814Z,99.99
2023-04-01T06:42:46.747Z,99.99
2023-04-01T06:43:46.702Z,99.99
2023-04-01T06:44:46.712Z,99.99
2023-04-01T06:45:46.703Z,99.99
2023-04-01T06:46:46.652Z,99.99
2023-04-01T06:47:46.688Z,99.99
2023-04-01T06:48:46.661Z,99.99
2023-04-01T06:49:46.625Z,99.99
2023-04-01T06:50:46.610Z,99.99
2023-04-01T06:51:46.731Z,99.99
2023-04-01T06:52:46.568Z,99.99
2023-04-01T06:53:46.596Z,99.99
2023-04-01T06:54:46.646Z,99.99
2023-04-01T06:55:46.596Z,99.99
2023-04-01T06:56:46.565Z,99.99
2023-04-01T06:57:46.596Z,99.99
2023-04-01T06:58:47.385Z,99.99
2023-04-01T06:59:46.505Z,99.99
2023-04-01T07:00:46.561Z,99.99
2023-04-01T07:01:46.539Z,99.99
2023-04-01T07:02:46.515Z,99.99
2023-04-01T07:03:46.490Z,99.99
2023-04-01T07:04:46.673Z,99.99
2023-04-01T07:05:46.529Z,99.99
2023-04-01T07:06:46.673Z,99.99
2023-04-01T07:07:46.466Z,99.99
2023-04-01T07:08:46.412Z,99.99
2023-04-01T07:09:46.419Z,99.99
2023-04-01T07:10:46.468Z,99.99
2023-04-01T07:11:46.685Z,99.99
2023-04-01T07:12:46.539Z,99.99
2023-04-01T07:13:46.472Z,99.99
2023-04-01T07:14:46.400Z,99.99
2023-04-01T07:15:46.363Z,99.99
2023-04-01T07:16:46.384Z,99.99
2023-04-01T07:17:46.420Z,99.99
2023-04-01T07:18:46.436Z,99.99
2023-04-01T07:19:46.291Z,99.99
2023-04-01T07:20:46.296Z,99.99
2023-04-01T07:21:46.335Z,99.99
2023-04-01T07:22:46.292Z,99.99
2023-04-01T07:23:46.270Z,99.99
2023-04-01T07:24:46.335Z,99.99
2023-04-01T07:25:46.305Z,99.99
2023-04-01T07:26:46.956Z,99.99
2023-04-01T07:27:46.228Z,99.99
2023-04-01T07:28:46.256Z,99.99
2023-04-01T07:29:46.251Z,99.99
2023-04-01T07:30:46.251Z,99.99
2023-04-01T07:31:46.200Z,99.99
2023-04-01T07:32:46.214Z,99.99
2023-04-01T07:33:46.147Z,99.99
2023-04-01T07:34:46.168Z,99.99
2023-04-01T07:35:46.193Z,99.99
2023-04-01T07:36:46.173Z,99.99
2023-04-01T07:37:46.134Z,99.99
2023-04-01T07:38:46.222Z,99.99
2023-04-01T07:39:46.353Z,99.99
2023-04-01T07:40:46.175Z,99.99
2023-04-01T07:41:46.097Z,99.99
2023-04-01T07:42:46.276Z,99.99
2023-04-01T07:43:46.060Z,99.99
2023-04-01T07:44:46.128Z,99.99
2023-04-01T07:45:46.079Z,99.99
2023-04-01T07:46:46.124Z,99.99
2023-04-01T07:47:46.120Z,99.99
2023-04-01T07:48:46.076Z,99.99
2023-04-01T07:49:46.092Z,99.99
2023-04-01T07:50:47.143Z,99.99
2023-04-01T07:51:46.017Z,99.99
2023-04-01T07:52:45.981Z,99.99
2023-04-01T07:53:46.005Z,99.99
2023-04-01T07:54:46.122Z,99.99
2023-04-01T07:55:46.011Z,99.99
2023-04-01T07:56:45.946Z,99.99
2023-04-01T07:57:45.937Z,99.99
2023-04-01T07:58:45.990Z,99.99
2023-04-01T07:59:46.018Z,99.99
2023-04-01T08:00:45.918Z,99.99
2023-04-01T08:01:45.893Z,99.99
2023-04-01T08:02:46.007Z,99.99
2023-04-01T08:03:46.011Z,99.99
2023-04-01T08:04:45.993Z,99.99
2023-04-01T08:05:45.879Z,99.99
2023-04-01T08:06:46.078Z,99.99
2023-04-01T08:07:46.040Z,99.99
2023-04-01T08:08:45.823Z,99.99
2023-04-01T08:09:45.789Z,99.99
2023-04-01T08:10:45.771Z,99.99
2023-04-01T08:11:45.846Z,99.99
2023-04-01T08:12:45.812Z,99.99
2023-04-01T08:13:45.771Z,99.99
2023-04-01T08:14:45.775Z,99.99
2023-04-01T08:15:45.742Z,99.99
2023-04-01T08:16:45.886Z,99.99
2023-04-01T08:17:45.791Z,99.99
2023-04-01T08:18:45.669Z,99.99
2023-04-01T08:19:45.683Z,99.99
2023-04-01T08:20:45.696Z,99.99
2023-04-01T08:21:45.679Z,99.99
2023-04-01T08:22:45.686Z,99.99
2023-04-01T08:23:45.657Z,99.99
2023-04-01T08:24:48.031Z,99.99
2023-04-01T08:25:45.707Z,99.99
2023-04-01T08:26:45.626Z,99.99
2023-04-01T08:27:45.662Z,99.99
2023-04-01T08:28:45.643Z,99.99
2023-04-01T08:29:45.632Z,99.99
2023-04-01T08:30:45.585Z,99.99
2023-04-01T08:31:45.567Z,99.99
2023-04-01T08:32:45.610Z,99.99
2023-04-01T08:33:45.523Z,99.99
2023-04-01T08:34:45.595Z,99.99
2023-04-01T08:35:45.577Z,99.99
2023-04-01T08:36:45.510Z,99.99
2023-04-01T08:37:45.519Z,99.99
2023-04-01T08:38:45.502Z,99.99
2023-04-01T08:39:45.579Z,99.99
2023-04-01T08:40:45.482Z,99.99
2023-04-01T08:41:45.458Z,99.99
2023-04-01T08:42:45.530Z,99.99
2023-04-01T08:43:45.471Z,99.99
2023-04-01T08:44:45.415Z,99.99
2023-04-01T08:45:45.474Z,99.99
2023-04-01T08:46:45.490Z,99.99
2023-04-01T08:47:45.521Z,99.99
2023-04-01T08:48:45.413Z,99.99
2023-04-01T08:49:45.362Z,99.99
2023-04-01T08:50:45.404Z,99.99
2023-04-01T08:51:45.361Z,99.99
2023-04-01T08:52:45.326Z,99.99
2023-04-01T08:53:45.416Z,99.99
2023-04-01T08:54:45.334Z,99.99
2023-04-01T08:55:45.326Z,99.99
2023-04-01T08:56:45.406Z,99.99
2023-04-01T08:57:45.282Z,99.99
2023-04-01T08:58:45.359Z,99.99
2023-04-01T08:59:45.308Z,99.99
2023-04-01T09:00:45.274Z,99.99
2023-04-01T09:01:45.260Z,99.99
2023-04-01T09:02:45.344Z,99.99
2023-04-01T09:03:45.363Z,99.99
2023-04-01T09:04:45.236Z,99.99
2023-04-01T09:05:45.366Z,99.99
2023-04-01T09:06:45.266Z,99.99
2023-04-01T09:07:45.221Z,99.99
2023-04-01T09:08:45.210Z,99.99
2023-04-01T09:09:46.130Z,99.99
2023-04-01T09:10:45.167Z,99.99
2023-04-01T09:11:45.214Z,99.99
2023-04-01T09:12:45.112Z,99.99
2023-04-01T09:13:45.310Z,99.99
2023-04-01T09:14:45.115Z,99.99
2023-04-01T09:15:45.305Z,99.99
2023-04-01T09:16:45.078Z,99.99
2023-04-01T09:17:45.134Z,99.99
2023-04-01T09:18:45.091Z,99.99
2023-04-01T09:19:45.061Z,99.99
2023-04-01T09:20:45.105Z,99.99
2023-04-01T09:21:45.069Z,99.99
2023-04-01T09:22:45.049Z,99.99
2023-04-01T09:23:45.039Z,99.99
2023-04-01T09:24:45.048Z,99.99
2023-04-01T09:25:45.015Z,99.99
2023-04-01T09:26:45.018Z,99.99
2023-04-01T09:27:45.002Z,99.99
2023-04-01T09:28:45.097Z,99.99
2023-04-01T09:29:45.023Z,99.99
2023-04-01T09:30:45.085Z,99.99
2023-04-01T09:31:45.082Z,99.99
2023-04-01T09:32:45.132Z,99.99
2023-04-01T09:33:45.293Z,99.96
2023-04-01T09:34:44.953Z,99.99
2023-04-01T09:35:45.003Z,99.99
2023-04-01T09:36:44.889Z,99.99
2023-04-01T09:37:44.885Z,99.99
2023-04-01T09:38:44.876Z,99.99
2023-04-01T09:39:44.898Z,99.45
2023-04-01T09:40:44.838Z,99.55
2023-04-01T09:41:44.902Z,99.66
2023-04-01T09:42:44.880Z,99.96
2023-04-01T09:43:44.845Z,99.50
2023-04-01T09:44:44.855Z,99.99
2023-04-01T09:45:44.951Z,99.99
2023-04-01T09:46:44.963Z,99.96
2023-04-01T09:47:45.023Z,99.99
2023-04-01T09:48:44.817Z,99.99
2023-04-01T09:49:44.758Z,99.99
2023-04-01T09:50:44.758Z,99.96
2023-04-01T09:51:44.754Z,99.86
2023-04-01T09:52:46.385Z,99.25
2023-04-01T09:53:44.735Z,99.55
2023-04-01T09:54:44.770Z,99.66
2023-04-01T09:55:44.829Z,99.76
2023-04-01T09:56:44.817Z,99.91
2023-04-01T09:57:44.752Z,99.76
2023-04-01T09:58:44.662Z,99.25
2023-04-01T09:59:44.673Z,99.19
2023-04-01T10:00:44.752Z,99.65
2023-04-01T10:01:44.712Z,99.99
2023-04-01T10:02:44.727Z,99.99
2023-04-01T10:03:44.666Z,99.99
2023-04-01T10:04:44.637Z,99.99
2023-04-01T10:05:44.651Z,99.99
2023-04-01T10:06:44.624Z,99.99
2023-04-01T10:07:44.609Z,99.99
2023-04-01T10:08:44.598Z,99.99
2023-04-01T10:09:44.561Z,99.99
2023-04-01T10:10:44.645Z,99.99
2023-04-01T10:11:44.552Z,99.54
2023-04-01T10:12:44.579Z,99.59
2023-04-01T10:13:44.520Z,99.99
2023-04-01T10:14:44.514Z,99.99
2023-04-01T10:15:44.544Z,99.99
2023-04-01T10:16:44.553Z,99.99
2023-04-01T10:17:44.587Z,99.79
2023-04-01T10:18:44.515Z,99.99
2023-04-01T10:19:44.473Z,99.99
2023-04-01T10:20:44.437Z,99.99
2023-04-01T10:21:44.457Z,99.99
2023-04-01T10:22:44.388Z,99.95
2023-04-01T10:23:44.424Z,99.75
2023-04-01T10:24:44.400Z,99.18
2023-04-01T10:25:44.455Z,99.65
2023-04-01T10:26:44.391Z,99.95
2023-04-01T10:27:44.349Z,99.99
2023-04-01T10:28:44.380Z,99.99
2023-04-01T10:29:44.375Z,99.99
2023-04-01T10:30:44.341Z,99.95
2023-04-01T10:31:44.397Z,99.99
2023-04-01T10:32:44.812Z,99.99
2023-04-01T10:33:44.292Z,99.99
2023-04-01T10:34:44.346Z,99.70
2023-04-01T10:35:44.408Z,98.83
2023-04-01T10:36:44.258Z,99.13
2023-04-01T10:37:44.305Z,99.85
2023-04-01T10:38:44.268Z,99.99
2023-04-01T10:39:44.218Z,99.99
2023-04-01T10:40:44.305Z,99.95
2023-04-01T10:41:44.266Z,99.54
2023-04-01T10:42:44.220Z,99.65
2023-04-01T10:43:44.279Z,99.65
2023-04-01T10:44:44.244Z,99.75
2023-04-01T10:45:44.281Z,99.13
2023-04-01T10:46:44.185Z,99.44
2023-04-01T10:47:44.240Z,99.34
2023-04-01T10:48:44.223Z,99.13
2023-04-01T10:49:46.251Z,98.62
2023-04-01T10:50:44.150Z,99.13
2023-04-01T10:51:45.072Z,98.99
2023-04-01T10:52:44.117Z,98.72
2023-04-01T10:53:44.110Z,98.99
2023-04-01T10:54:44.082Z,98.58
2023-04-01T10:55:44.073Z,98.47
2023-04-01T10:56:44.104Z,98.58
2023-04-01T10:57:44.051Z,98.68
2023-04-01T10:58:44.059Z,98.58
2023-04-01T10:59:44.048Z,98.47
2023-04-01T11:00:44.019Z,98.47
2023-04-01T11:01:44.158Z,98.37
2023-04-01T11:02:44.075Z,98.68
2023-04-01T11:03:44.152Z,98.42
2023-04-01T11:04:45.642Z,98.21
2023-04-01T11:05:43.964Z,98.25
2023-04-01T11:06:43.979Z,98.93
2023-04-01T11:07:46.551Z,98.72
2023-04-01T11:08:44.930Z,98.52
2023-04-01T11:09:43.916Z,98.00
2023-04-01T11:10:43.902Z,98.32
2023-04-01T11:11:43.895Z,98.62
2023-04-01T11:12:44.023Z,98.52
2023-04-01T11:13:43.862Z,98.36
2023-04-01T11:14:43.884Z,98.46
2023-04-01T11:15:43.891Z,98.00
2023-04-01T11:16:43.936Z,98.11
2023-04-01T11:17:43.919Z,98.21
2023-04-01T11:18:43.860Z,97.91
2023-04-01T11:19:45.205Z,97.70
2023-04-01T11:20:43.828Z,97.95
2023-04-01T11:21:43.901Z,98.77
2023-04-01T11:22:43.816Z,99.59
2023-04-01T11:23:45.525Z,99.79
2023-04-01T11:24:44.816Z,99.18
2023-04-01T11:25:43.754Z,97.99
2023-04-01T11:26:43.771Z,99.02
2023-04-01T11:27:43.743Z,99.74
2023-04-01T11:28:43.709Z,99.99
2023-04-01T11:29:53.370Z,99.33
2023-04-01T11:30:44.712Z,99.90
2023-04-01T11:31:43.778Z,99.38
2023-04-01T11:32:43.735Z,98.87
2023-04-01T11:33:43.697Z,98.87
2023-04-01T11:34:44.747Z,98.97
2023-04-01T11:35:43.649Z,98.57
2023-04-01T11:36:43.763Z,98.36
2023-04-01T11:37:43.627Z,98.25
2023-04-01T11:38:43.616Z,98.71
2023-04-01T11:39:43.669Z,99.12
2023-04-01T11:40:43.600Z,98.92
2023-04-01T11:41:43.625Z,99.02
2023-04-01T11:42:43.622Z,98.71
2023-04-01T11:43:43.590Z,99.74
2023-04-01T11:44:43.630Z,99.79
2023-04-01T11:45:43.532Z,99.18
2023-04-01T11:46:43.628Z,98.77
2023-04-01T11:47:43.531Z,98.57
2023-04-01T11:48:44.932Z,98.16
2023-04-01T11:49:45.266Z,98.10
2023-04-01T11:50:43.546Z,98.82
2023-04-01T11:51:43.552Z,99.48
2023-04-01T11:52:43.641Z,99.68
2023-04-01T11:53:43.491Z,99.99
2023-04-01T11:54:43.479Z,99.99
2023-04-01T11:55:43.544Z,99.54
2023-04-01T11:56:43.445Z,99.22
2023-04-01T11:57:43.480Z,99.27
2023-04-01T11:58:43.480Z,99.63
2023-04-01T11:59:43.438Z,98.92
2023-04-01T12:00:43.459Z,98.92
2023-04-01T12:01:43.419Z,99.22
2023-04-01T12:02:43.467Z,98.92
2023-04-01T12:03:44.313Z,99.22
2023-04-01T12:04:44.891Z,98.82
2023-04-01T12:05:43.400Z,98.96
2023-04-01T12:06:43.416Z,99.12
2023-04-01T12:07:44.786Z,98.86
2023-04-01T12:08:43.417Z,98.76
2023-04-01T12:09:43.737Z,98.96
2023-04-01T12:10:43.432Z,98.25
2023-04-01T12:11:43.327Z,98.45
2023-04-01T12:12:54.165Z,98.86
2023-04-01T12:13:44.308Z,98.91
2023-04-01T12:14:43.301Z,99.52
2023-04-01T12:15:43.240Z,99.42
2023-04-01T12:16:43.326Z,99.83
2023-04-01T12:17:43.358Z,99.99
2023-04-01T12:18:43.328Z,99.99
2023-04-01T12:19:43.335Z,99.79
2023-04-01T12:20:43.200Z,99.89
2023-04-01T12:21:43.253Z,99.99
2023-04-01T12:22:43.205Z,99.99
2023-04-01T12:23:43.313Z,99.27
2023-04-01T12:24:43.191Z,99.38
2023-04-01T12:25:43.384Z,99.99
2023-04-01T12:26:43.282Z,99.27
2023-04-01T12:27:43.160Z,99.89
2023-04-01T12:28:43.175Z,99.48
2023-04-01T12:29:43.135Z,98.66
2023-04-01T12:30:43.201Z,98.86
2023-04-01T12:31:43.113Z,99.17
2023-04-01T12:32:43.165Z,98.76
2023-04-01T12:33:43.277Z,99.07
2023-04-01T12:34:44.859Z,98.96
2023-04-01T12:35:43.195Z,99.58
2023-04-01T12:36:43.028Z,99.38
2023-04-01T12:37:43.074Z,99.58
2023-04-01T12:38:43.037Z,99.17
2023-04-01T12:39:42.995Z,98.35
2023-04-01T12:40:43.006Z,98.80
2023-04-01T12:41:43.020Z,99.83
2023-04-01T12:42:43.028Z,99.83
2023-04-01T12:43:43.008Z,99.32
2023-04-01T12:44:42.955Z,98.80
2023-04-01T12:45:42.965Z,99.38
2023-04-01T12:46:42.964Z,99.17
2023-04-01T12:47:42.990Z,98.96
2023-04-01T12:48:42.911Z,98.76
2023-04-01T12:49:42.915Z,98.86
2023-04-01T12:50:43.014Z,98.80
2023-04-01T12:51:42.903Z,99.48
2023-04-01T12:52:43.179Z,99.58